Time;durP1;ratioP1;P1;durP2;ratioP2;P2;SDS_P1;SDS_P2;PMS_P1;PMS_P2;Temp;Humidity;BMP_temperature;BMP_pressure;BME280_temperature;BME280_humidity;BME280_pressure;Samples;Min_cycle;Max_cycle;Signal;HPM_P1;HPM_P2
2022/09/11 00:00:20;;;;;;;12.38;6.28;;;;;;;25.64;50.13;98373.81;4999711;28;20436;-75
2022/09/11 00:02:45;;;;;;;9.77;5.95;;;;;;;25.59;50.06;98366.47;4999362;28;20471;-76
2022/09/11 00:05:11;;;;;;;9.77;5.15;;;;;;;25.55;49.84;98362.59;4997583;28;20064;-76
2022/09/11 00:07:36;;;;;;;8.40;5.30;;;;;;;25.54;50.25;98368.16;4997684;28;20091;-77
2022/09/11 00:10:02;;;;;;;9.82;5.30;;;;;;;25.58;51.50;98367.50;5032343;28;20029;-76
2022/09/11 00:12:27;;;;;;;7.90;4.97;;;;;;;25.59;51.16;98374.47;4999431;28;20499;-77
2022/09/11 00:14:53;;;;;;;9.32;5.30;;;;;;;25.61;51.11;98368.91;4983315;28;20037;-77
2022/09/11 00:17:18;;;;;;;11.45;5.28;;;;;;;25.60;51.33;98368.09;4998611;28;20038;-77
2022/09/11 00:19:43;;;;;;;7.60;4.85;;;;;;;25.63;51.03;98372.16;5015810;28;20477;-76
2022/09/11 00:22:10;;;;;;;9.65;5.38;;;;;;;25.61;51.14;98374.25;5015594;28;20029;-76
2022/09/11 00:24:35;;;;;;;7.72;4.93;;;;;;;25.54;51.52;98373.50;4983330;28;20040;-76
2022/09/11 00:27:01;;;;;;;9.48;5.32;;;;;;;25.58;51.34;98386.19;5033295;28;20030;-77
2022/09/11 00:29:28;;;;;;;9.73;5.00;;;;;;;25.56;51.05;98382.13;4999785;28;20025;-76
2022/09/11 00:31:55;;;;;;;8.95;5.20;;;;;;;25.52;50.79;98368.38;5016375;28;20052;-77
2022/09/11 00:34:21;;;;;;;10.10;4.88;;;;;;;25.51;50.91;98387.31;4999644;28;20496;-76
2022/09/11 00:36:47;;;;;;;13.18;4.97;;;;;;;25.41;51.14;98375.31;5015456;28;20040;-76
2022/09/11 00:39:13;;;;;;;7.00;4.80;;;;;;;25.43;51.45;98386.56;4998853;28;20516;-75
2022/09/11 00:41:40;;;;;;;6.97;4.85;;;;;;;25.44;51.52;98379.38;5015532;28;20022;-75
2022/09/11 00:44:14;;;;;;;8.07;5.18;;;;;;;25.45;51.11;98379.16;4983049;28;20021;-76
2022/09/11 00:46:56;;;;;;;11.05;5.13;;;;;;;25.46;51.14;98378.13;5000484;28;20052;-77
2022/09/11 00:49:31;;;;;;;9.75;5.20;;;;;;;25.45;50.94;98381.81;4982218;28;20037;-77
2022/09/11 00:52:12;;;;;;;12.02;5.05;;;;;;;25.44;50.91;98377.53;5032291;28;20022;-76
2022/09/11 00:54:49;;;;;;;6.30;4.75;;;;;;;25.43;50.67;98370.53;4983251;28;20036;-75
2022/09/11 00:57:15;;;;;;;11.32;4.88;;;;;;;25.36;51.04;98369.78;4983478;28;20064;-75
2022/09/11 00:59:41;;;;;;;8.93;4.82;;;;;;;25.33;50.93;98372.91;4982351;28;20033;-75
2022/09/11 01:02:07;;;;;;;5.35;4.75;;;;;;;25.34;51.22;98382.56;4998423;28;20025;-75
2022/09/11 01:04:32;;;;;;;10.85;4.80;;;;;;;25.35;50.79;98380.69;4998541;28;20487;-75
2022/09/11 01:06:58;;;;;;;8.70;5.10;;;;;;;25.33;50.89;98380.91;4997988;28;20057;-76
2022/09/11 01:09:25;;;;;;;8.95;5.25;;;;;;;25.29;50.82;98374.41;4998253;28;20481;-76
2022/09/11 01:12:06;;;;;;;8.95;4.68;;;;;;;25.34;51.02;98377.22;4998745;28;20060;-76
2022/09/11 01:14:31;;;;;;;6.97;4.63;;;;;;;25.33;50.77;98369.41;4999399;28;20045;-76
2022/09/11 01:17:24;;;;;;;9.55;4.60;;;;;;;25.37;50.74;98376.78;5032750;28;20026;-76
2022/09/11 01:20:30;;;;;;;7.13;4.75;;;;;;;25.38;50.56;98375.75;5032327;28;20211;-75
2022/09/11 01:23:05;;;;;;;7.25;4.53;;;;;;;25.38;50.16;98377.56;5017569;28;20116;-76
2022/09/11 01:25:40;;;;;;;6.65;4.63;;;;;;;25.34;50.41;98379.88;5015975;28;20033;-75
2022/09/11 01:28:22;;;;;;;7.63;4.50;;;;;;;25.32;50.12;98375.78;5014744;28;20036;-75
2022/09/11 01:30:55;;;;;;;8.38;4.75;;;;;;;25.29;50.41;98374.41;5014774;28;20026;-76
2022/09/11 01:33:39;;;;;;;6.75;4.60;;;;;;;25.30;50.31;98373.34;4982259;28;20037;-75
2022/09/11 01:36:06;;;;;;;9.60;4.80;;;;;;;25.23;50.50;98357.34;5032459;28;20052;-74
2022/09/11 01:38:52;;;;;;;8.65;4.57;;;;;;;25.26;50.38;98364.13;4996984;28;20040;-74
2022/09/11 01:41:21;;;;;;;9.55;4.60;;;;;;;25.22;49.54;98362.91;5031376;28;20124;-77
2022/09/11 01:44:06;;;;;;;8.70;4.78;;;;;;;25.05;49.56;98358.16;5032012;28;20033;-76
2022/09/11 01:46:36;;;;;;;7.43;4.55;;;;;;;24.95;49.67;98357.03;4998198;28;20033;-77
2022/09/11 01:49:07;;;;;;;10.30;4.45;;;;;;;24.84;49.94;98351.38;4982492;28;20029;-76
2022/09/11 01:51:33;;;;;;;9.98;4.88;;;;;;;24.80;49.90;98357.38;4982107;28;20060;-76
2022/09/11 01:53:59;;;;;;;8.68;4.65;;;;;;;24.72;50.44;98359.28;4998166;28;20071;-77
2022/09/11 01:56:28;;;;;;;9.05;4.90;;;;;;;24.69;50.15;98350.88;4982138;28;20091;-76
2022/09/11 01:58:57;;;;;;;6.32;4.68;;;;;;;24.66;50.32;98354.00;4982528;28;20025;-77
2022/09/11 02:01:26;;;;;;;9.98;4.43;;;;;;;24.62;50.60;98353.63;4998534;28;20022;-76
2022/09/11 02:03:55;;;;;;;7.28;4.20;;;;;;;24.50;50.79;98350.78;4998494;28;20482;-77
2022/09/11 02:06:23;;;;;;;6.50;4.43;;;;;;;24.49;50.53;98348.34;4981837;28;20134;-76
2022/09/11 02:09:16;;;;;;;11.90;4.65;;;;;;;24.43;50.84;98343.88;4982064;28;20489;-77
2022/09/11 02:11:41;;;;;;;7.25;4.80;;;;;;;24.38;50.61;98344.50;5011648;28;20049;-77
2022/09/11 02:14:12;;;;;;;7.80;4.30;;;;;;;24.30;50.99;98348.25;4998419;28;20026;-77
2022/09/11 02:16:45;;;;;;;7.20;4.53;;;;;;;24.22;51.09;98343.19;4998241;28;20129;-77
2022/09/11 02:19:12;;;;;;;7.97;4.47;;;;;;;24.11;50.63;98341.19;5014378;28;20022;-77
2022/09/11 02:21:38;;;;;;;8.25;4.53;;;;;;;24.03;50.84;98340.41;4982089;28;20033;-77
2022/09/11 02:24:03;;;;;;;6.43;4.50;;;;;;;24.00;50.91;98362.19;5002450;28;20041;-77
2022/09/11 02:26:30;;;;;;;8.52;4.22;;;;;;;23.92;51.03;98350.94;5002160;28;20026;-78
2022/09/11 02:28:56;;;;;;;7.70;4.55;;;;;;;23.91;50.85;98359.97;4986017;28;20033;-77
2022/09/11 02:31:21;;;;;;;5.93;4.32;;;;;;;23.87;50.87;98364.91;5002123;28;20033;-78
2022/09/11 02:33:48;;;;;;;7.38;4.53;;;;;;;23.79;50.81;98359.78;5001775;28;20029;-78
2022/09/11 02:36:23;;;;;;;7.65;4.75;;;;;;;23.71;50.78;98362.69;4985486;28;20060;-78
2022/09/11 02:38:57;;;;;;;7.93;4.30;;;;;;;23.73;50.29;98371.28;5001713;28;20052;-77
2022/09/11 02:41:27;;;;;;;7.22;4.18;;;;;;;23.71;50.78;98362.69;5017907;28;20040;-78
2022/09/11 02:44:08;;;;;;;6.63;4.60;;;;;;;23.73;50.62;98358.78;5002388;28;20032;-78
2022/09/11 02:46:36;;;;;;;7.95;4.63;;;;;;;23.71;50.41;98363.50;5001332;28;20489;-78
2022/09/11 02:49:18;;;;;;;7.18;4.30;;;;;;;23.69;50.59;98362.06;5035225;28;20033;-78
2022/09/11 02:51:54;;;;;;;9.10;4.43;;;;;;;23.58;50.14;98360.91;5001160;28;20029;-77
2022/09/11 02:54:45;;;;;;;8.43;4.20;;;;;;;23.62;49.71;98351.44;5017553;28;20036;-78
2022/09/11 02:57:26;;;;;;;6.32;4.32;;;;;;;23.61;49.50;98366.63;5017666;28;20059;-78
2022/09/11 02:59:55;;;;;;;8.63;4.57;;;;;;;23.56;49.44;98369.09;5017451;28;20033;-78
2022/09/11 03:02:22;;;;;;;7.93;4.35;;;;;;;23.56;49.21;98368.28;4985674;28;20040;-77
2022/09/11 03:04:47;;;;;;;6.72;4.25;;;;;;;23.56;49.06;98368.28;4984297;28;20220;-78
2022/09/11 03:07:13;;;;;;;8.07;4.55;;;;;;;23.51;48.60;98357.44;5017436;28;20030;-77
2022/09/11 03:09:38;;;;;;;8.18;4.28;;;;;;;23.56;48.83;98365.59;5017229;28;20045;-78
2022/09/11 03:12:04;;;;;;;7.75;4.18;;;;;;;23.57;48.92;98369.91;5017856;28;20119;-78
2022/09/11 03:14:30;;;;;;;6.63;4.20;;;;;;;23.57;48.43;98359.25;5001463;28;20029;-77
2022/09/11 03:16:57;;;;;;;7.03;4.25;;;;;;;23.58;48.25;98367.03;5000979;28;20137;-78
2022/09/11 03:19:23;;;;;;;6.95;4.18;;;;;;;23.62;48.78;98373.56;5000910;28;20060;-79
2022/09/11 03:21:49;;;;;;;12.73;4.47;;;;;;;23.58;49.16;98364.38;5017207;28;20043;-78
2022/09/11 03:24:15;;;;;;;8.63;4.28;;;;;;;23.56;48.75;98360.28;5001195;28;20030;-78
2022/09/11 03:26:41;;;;;;;6.60;4.10;;;;;;;23.61;48.62;98374.63;4984295;28;20127;-78
2022/09/11 03:29:07;;;;;;;7.97;4.63;;;;;;;23.60;48.64;98374.81;5017339;28;20481;-78
2022/09/11 03:31:33;;;;;;;9.10;4.32;;;;;;;23.54;48.70;98367.66;5001156;28;20025;-78
2022/09/11 03:33:58;;;;;;;6.75;4.13;;;;;;;23.57;49.21;98378.72;5016408;28;20072;-78
2022/09/11 03:36:24;;;;;;;7.00;4.10;;;;;;;23.55;49.10;98380.78;4984559;28;20125;-78
2022/09/11 03:38:51;;;;;;;8.85;4.30;;;;;;;23.43;49.29;98379.78;4984698;28;20042;-78
2022/09/11 03:41:17;;;;;;;16.80;4.47;;;;;;;23.31;48.59;98376.97;5017552;28;20021;-83
2022/09/11 03:43:42;;;;;;;8.80;4.57;;;;;;;23.23;48.70;98388.66;5001095;28;20041;-81
2022/09/11 03:46:07;;;;;;;16.08;4.47;;;;;;;23.07;49.12;98387.19;4984336;28;20025;-83
2022/09/11 03:48:33;;;;;;;5.93;3.85;;;;;;;22.97;49.73;98400.09;5000155;28;20068;-82
2022/09/11 03:50:58;;;;;;;6.97;4.10;;;;;;;22.85;49.63;98393.75;5016612;28;20028;-81
2022/09/11 03:53:25;;;;;;;7.43;4.30;;;;;;;22.71;50.10;98396.41;5017065;28;20037;-81
2022/09/11 03:55:51;;;;;;;7.90;4.10;;;;;;;22.65;50.31;98396.41;4983685;28;20041;-82
2022/09/11 03:58:18;;;;;;;6.85;5.00;;;;;;;22.52;49.99;98395.38;4984167;28;20190;-81
2022/09/11 04:00:44;;;;;;;10.55;4.93;;;;;;;22.73;55.05;98409.50;5000985;28;20069;-80
2022/09/11 04:03:10;;;;;;;12.10;4.63;;;;;;;22.89;54.03;98393.13;5015700;28;20052;-75
2022/09/11 04:05:37;;;;;;;6.90;4.47;;;;;;;23.22;49.63;98400.31;4999992;28;20072;-81
2022/09/11 04:08:02;;;;;;;7.18;3.90;;;;;;;23.36;48.24;98402.97;5016100;28;20485;-80
2022/09/11 04:10:28;;;;;;;5.43;3.90;;;;;;;23.44;47.88;98405.41;5000037;28;20037;-79
2022/09/11 04:12:53;;;;;;;9.05;4.50;;;;;;;23.47;48.43;98408.47;5035272;28;20033;-86
2022/09/11 04:15:19;;;;;;;7.20;4.13;;;;;;;23.92;48.10;98402.41;4999998;28;20042;-81
2022/09/11 04:17:45;;;;;;;8.75;4.65;;;;;;;24.18;46.88;98401.47;5034179;28;20459;-80
2022/09/11 04:20:10;;;;;;;8.35;5.40;;;;;;;24.81;45.36;98397.19;5033809;28;20029;-75
2022/09/11 04:22:36;;;;;;;6.55;4.20;;;;;;;25.71;43.81;98403.13;5033850;28;20041;-81
2022/09/11 04:25:01;;;;;;;7.22;4.38;;;;;;;26.71;41.67;98401.84;4983628;28;20029;-78
2022/09/11 04:27:27;;;;;;;6.95;3.63;;;;;;;27.38;40.38;98392.69;4998841;28;20037;-79
2022/09/11 04:29:52;;;;;;;8.35;3.80;;;;;;;27.56;39.01;98403.28;5015871;28;20037;-77
2022/09/11 04:32:18;;;;;;;6.80;4.05;;;;;;;27.71;37.82;98407.34;4998921;28;20512;-79
2022/09/11 04:34:43;;;;;;;7.50;3.47;;;;;;;28.20;36.78;98402.44;4999696;28;20033;-80
2022/09/11 04:37:10;;;;;;;5.90;2.97;;;;;;;28.82;35.35;98403.53;5033870;28;20069;-79
2022/09/11 04:39:36;;;;;;;6.00;3.10;;;;;;;28.41;35.65;98402.78;5000152;28;20546;-79
2022/09/11 04:42:03;;;;;;;8.95;2.95;;;;;;;27.71;36.78;98410.03;4999591;28;20029;-80
2022/09/11 04:44:28;;;;;;;9.75;2.92;;;;;;;27.29;37.48;98408.28;4999416;28;20034;-79
2022/09/11 04:46:55;;;;;;;14.93;3.47;;;;;;;27.19;38.11;98400.03;4999212;28;20037;-76
2022/09/11 04:49:20;;;;;;;11.25;4.00;;;;;;;27.37;40.62;98404.47;4999664;28;20036;-77
2022/09/11 04:51:46;;;;;;;9.70;3.75;;;;;;;27.90;36.78;98408.78;5016237;28;20408;-77
2022/09/11 04:54:16;;;;;;;7.15;3.65;;;;;;;28.34;36.98;98409.13;4982959;28;20099;-77
2022/09/11 04:56:42;;;;;;;9.27;3.17;;;;;;;27.93;37.52;98399.47;4999918;28;20064;-77
2022/09/11 04:59:12;;;;;;;9.68;3.70;;;;;;;27.92;39.25;98401.31;4999560;28;20076;-77
2022/09/11 05:01:38;;;;;;;11.13;3.22;;;;;;;27.85;37.48;98414.06;4999685;28;20021;-77
2022/09/11 05:04:04;;;;;;;6.57;3.20;;;;;;;27.74;37.53;98413.03;5014639;28;20144;-77
2022/09/11 05:06:29;;;;;;;3.47;2.55;;;;;;;28.48;36.01;98403.44;4998392;28;20548;-78
2022/09/11 05:08:55;;;;;;;4.13;2.78;;;;;;;29.45;34.51;98398.81;4982953;28;20107;-79
2022/09/11 05:11:21;;;;;;;6.22;2.70;;;;;;;30.18;32.50;98404.03;4999185;28;20052;-79
2022/09/11 05:13:47;;;;;;;6.75;2.92;;;;;;;30.95;31.00;98391.28;5015958;28;20461;-80
2022/09/11 05:16:14;;;;;;;6.68;3.00;;;;;;;31.70;30.33;98406.56;4983459;28;20060;-82
2022/09/11 05:18:41;;;;;;;5.28;2.42;;;;;;;32.27;29.65;98400.28;4999132;28;20500;-78
2022/09/11 05:21:11;;;;;;;4.72;2.53;;;;;;;32.84;28.35;98400.38;4998921;28;20045;-79
2022/09/11 05:23:38;;;;;;;4.07;2.38;;;;;;;33.24;28.31;98396.03;4998646;28;20036;-80
2022/09/11 05:26:04;;;;;;;4.03;2.47;;;;;;;33.49;27.69;98405.13;4999230;28;20524;-76
2022/09/11 05:28:29;;;;;;;5.00;2.60;;;;;;;33.91;27.45;98405.84;5015060;28;20112;-76
2022/09/11 05:30:55;;;;;;;4.63;2.20;;;;;;;34.26;27.30;98407.56;4998300;28;20103;-76
2022/09/11 05:33:24;;;;;;;18.85;2.70;;;;;;;34.67;26.92;98391.00;4981384;28;20065;-74
2022/09/11 05:35:53;;;;;;;14.73;2.90;;;;;;;35.41;27.28;98409.88;4998578;28;20040;-77
2022/09/11 05:38:19;;;;;;;11.57;3.15;;;;;;;36.13;26.39;98400.03;4968297;28;20091;-73
2022/09/11 05:40:47;;;;;;;12.25;2.75;;;;;;;36.66;25.31;98404.41;4996904;28;20469;-72
2022/09/11 05:43:14;;;;;;;5.57;2.50;;;;;;;37.05;24.39;98403.22;4980834;28;20099;-73
2022/09/11 05:45:40;;;;;;;9.73;2.30;;;;;;;37.37;23.21;98407.84;4980928;28;20032;-75
2022/09/11 05:48:06;;;;;;;6.45;2.92;;;;;;;37.65;22.75;98396.91;4997237;28;20420;-73
2022/09/11 05:50:33;;;;;;;9.48;3.25;;;;;;;37.92;22.52;98400.75;4997011;28;20029;-72
2022/09/11 05:52:59;;;;;;;21.80;4.90;;;;;;;38.18;22.26;98398.31;5008434;28;20021;-76
2022/09/11 05:55:24;;;;;;;21.65;5.22;;;;;;;38.43;22.16;98401.53;4980456;28;20037;-74
2022/09/11 05:57:53;;;;;;;20.42;4.63;;;;;;;38.62;22.08;98394.00;5013300;28;20438;-74
2022/09/11 06:00:19;;;;;;;34.70;5.13;;;;;;;38.86;22.73;98401.06;4996976;28;20026;-75
2022/09/11 06:02:47;;;;;;;22.03;4.73;;;;;;;39.03;22.94;98405.78;4981244;28;20413;-79
2022/09/11 06:05:14;;;;;;;18.17;4.90;;;;;;;39.25;22.65;98399.50;4988078;28;20034;-76
2022/09/11 06:07:41;;;;;;;21.50;4.85;;;;;;;39.54;22.56;98399.00;4992434;28;20430;-75
2022/09/11 06:10:07;;;;;;;10.55;3.50;;;;;;;39.78;21.31;98400.50;4937745;28;20387;-73
2022/09/11 06:12:33;;;;;;;10.63;2.70;;;;;;;40.16;20.27;98403.44;4953213;28;20030;-76
2022/09/11 06:14:59;;;;;;;12.45;3.00;;;;;;;40.48;20.01;98404.09;4952965;28;20302;-74
2022/09/11 06:17:27;;;;;;;6.13;2.45;;;;;;;40.81;19.93;98402.75;4939402;28;20077;-76
2022/09/11 06:19:53;;;;;;;9.80;2.92;;;;;;;40.97;20.29;98411.28;4971021;28;20077;-75
2022/09/11 06:22:20;;;;;;;13.65;2.45;;;;;;;41.13;19.66;98406.88;4952544;28;20030;-76
2022/09/11 06:24:46;;;;;;;4.90;2.40;;;;;;;41.35;18.87;98413.25;4952702;28;20512;-76
2022/09/11 06:27:12;;;;;;;6.72;2.40;;;;;;;41.50;18.39;98409.97;4970605;28;20096;-76
2022/09/11 06:29:37;;;;;;;5.47;2.22;;;;;;;41.68;18.28;98412.59;4954438;28;20026;-76
2022/09/11 06:32:03;;;;;;;3.85;2.00;;;;;;;41.78;17.85;98408.69;4942144;28;20038;-74
2022/09/11 06:34:30;;;;;;;4.43;2.20;;;;;;;41.87;17.67;98409.44;4941564;28;20038;-76
2022/09/11 06:36:55;;;;;;;5.22;2.28;;;;;;;41.97;17.50;98405.50;4934151;28;20034;-76
2022/09/11 06:39:25;;;;;;;5.88;2.10;;;;;;;42.07;17.28;98416.88;4935596;28;20026;-76
2022/09/11 06:41:52;;;;;;;4.88;2.10;;;;;;;42.15;16.89;98408.94;4949646;28;20119;-74
2022/09/11 06:44:18;;;;;;;3.38;2.03;;;;;;;42.20;16.95;98404.06;4952290;28;20054;-73
2022/09/11 06:46:44;;;;;;;7.53;2.30;;;;;;;42.27;16.81;98412.56;4973003;28;20072;-75
2022/09/11 06:49:10;;;;;;;5.80;2.30;;;;;;;42.33;16.76;98406.88;4991534;28;20026;-75
2022/09/11 06:51:35;;;;;;;5.82;2.03;;;;;;;42.37;16.44;98413.28;4942650;28;20077;-75
2022/09/11 06:54:01;;;;;;;3.70;2.17;;;;;;;42.45;16.70;98410.47;4958400;28;20088;-80
2022/09/11 06:56:26;;;;;;;5.10;2.10;;;;;;;42.51;16.61;98411.06;4958098;28;20105;-75
2022/09/11 06:58:52;;;;;;;7.75;2.47;;;;;;;42.54;17.70;98415.88;4958541;28;20121;-85
2022/09/11 07:01:19;;;;;;;3.25;2.00;;;;;;;42.57;17.21;98411.66;4941644;28;20030;-81
2022/09/11 07:03:45;;;;;;;;;;;;;;;42.60;16.82;98416.47;4974313;28;20144;-85
2022/09/11 07:06:13;;;;;;;9.57;2.67;;;;;;;42.65;17.67;98411.59;4988510;28;20324;-92
2022/09/11 07:08:39;;;;;;;27.83;3.00;;;;;;;42.51;18.39;98413.81;4979751;28;20040;-77
2022/09/11 07:11:05;;;;;;;23.75;2.63;;;;;;;42.57;17.56;98414.41;5013835;28;20026;-80
2022/09/11 07:13:31;;;;;;;8.45;2.30;;;;;;;42.63;17.08;98422.09;4978791;28;20026;-79
2022/09/11 07:16:01;;;;;;;6.77;2.30;;;;;;;42.75;17.31;98415.84;4984405;28;20117;-78
2022/09/11 07:18:31;;;;;;;9.68;2.08;;;;;;;42.82;16.99;98415.28;4978435;28;20061;-77
2022/09/11 07:20:57;;;;;;;6.50;2.25;;;;;;;42.89;16.51;98414.72;4978967;28;20038;-78
2022/09/11 07:23:23;;;;;;;7.75;2.10;;;;;;;42.95;16.46;98418.84;4979481;28;20058;-77
2022/09/11 07:25:48;;;;;;;6.95;2.20;;;;;;;42.99;16.38;98425.31;4963541;28;20254;-78
2022/09/11 07:28:14;;;;;;;3.78;2.05;;;;;;;43.03;16.47;98419.94;4995594;28;20022;-78
2022/09/11 07:30:40;;;;;;;5.80;2.23;;;;;;;43.08;16.37;98417.78;4981275;28;20022;-77
2022/09/11 07:33:06;;;;;;;4.32;2.08;;;;;;;43.13;16.37;98417.56;4995418;28;20029;-83
2022/09/11 07:35:35;;;;;;;6.63;2.10;;;;;;;43.28;16.36;98423.50;4961309;28;20088;-84
2022/09/11 07:38:01;;;;;;;8.10;2.05;;;;;;;43.31;16.02;98420.88;4976928;28;20040;-84
2022/09/11 07:40:26;;;;;;;4.33;2.13;;;;;;;43.37;15.90;98419.50;4978930;28;20022;-74
2022/09/11 07:42:52;;;;;;;3.77;1.80;;;;;;;43.48;15.89;98424.59;4979272;28;20563;-77
2022/09/11 07:45:17;;;;;;;3.43;1.90;;;;;;;43.60;15.71;98426.50;4989642;28;20039;-73
2022/09/11 07:47:43;;;;;;;5.67;1.80;;;;;;;43.72;15.84;98432.00;4994484;28;20417;-78
2022/09/11 07:50:09;;;;;;;5.17;1.80;;;;;;;43.80;15.32;98422.84;4995323;28;20060;-73
2022/09/11 07:52:35;;;;;;;6.15;1.92;;;;;;;43.88;15.51;98434.88;4961934;28;20092;-75
2022/09/11 07:55:02;;;;;;;4.10;1.83;;;;;;;43.98;15.20;98428.09;4978354;28;20051;-78
2022/09/11 07:57:31;;;;;;;6.35;2.00;;;;;;;44.07;14.94;98432.28;4978807;28;20519;-74
2022/09/11 07:59:57;;;;;;;5.95;2.10;;;;;;;44.18;14.79;98429.88;4977996;28;20055;-75
2022/09/11 08:02:22;;;;;;;2.87;1.70;;;;;;;44.29;14.63;98429.41;4961969;28;20034;-76
2022/09/11 08:04:48;;;;;;;6.43;1.90;;;;;;;44.37;14.82;98431.22;4980518;28;20052;-73
2022/09/11 08:07:15;;;;;;;4.90;2.00;;;;;;;44.41;14.91;98423.88;4981884;28;20442;-75
2022/09/11 08:09:41;;;;;;;4.97;1.67;;;;;;;44.45;14.96;98424.75;5013708;28;20030;-74
2022/09/11 08:12:06;;;;;;;5.90;2.13;;;;;;;44.50;14.66;98418.19;4962497;28;20030;-74
2022/09/11 08:14:32;;;;;;;6.07;1.90;;;;;;;44.49;14.65;98417.41;4977836;28;20459;-75
2022/09/11 08:16:57;;;;;;;4.40;1.90;;;;;;;44.50;14.63;98415.44;5011611;28;20018;-76
2022/09/11 08:19:23;;;;;;;5.33;2.10;;;;;;;44.55;14.05;98417.94;4976842;28;20022;-74
2022/09/11 08:21:49;;;;;;;3.50;1.90;;;;;;;44.61;14.93;98419.31;4977868;28;20052;-76
2022/09/11 08:24:19;;;;;;;4.22;2.15;;;;;;;44.68;14.84;98416.78;4961833;28;20524;-78
2022/09/11 08:26:44;;;;;;;5.40;2.10;;;;;;;44.70;14.82;98414.47;4979399;28;20476;-75
2022/09/11 08:29:10;;;;;;;4.07;2.07;;;;;;;44.80;14.59;98413.97;4961848;28;20022;-78
2022/09/11 08:31:35;;;;;;;10.27;1.73;;;;;;;44.80;14.85;98408.44;4978163;28;20053;-76
2022/09/11 08:34:01;;;;;;;15.10;2.30;;;;;;;44.89;15.12;98401.97;4993829;28;20095;-77
2022/09/11 08:36:27;;;;;;;12.57;2.33;;;;;;;45.04;15.10;98398.47;4993451;28;20020;-75
2022/09/11 08:38:54;;;;;;;12.93;2.80;;;;;;;45.10;14.56;98396.22;4993835;28;20120;-77
2022/09/11 08:41:22;;;;;;;13.98;2.67;;;;;;;44.15;15.72;98391.25;4959011;28;20135;-75
2022/09/11 08:44:02;;;;;;;7.75;2.60;;;;;;;44.39;15.70;98390.38;4990738;28;20074;-75
2022/09/11 08:46:34;;;;;;;5.65;2.10;;;;;;;43.28;16.22;98388.59;4978249;28;20026;-75
2022/09/11 08:49:05;;;;;;;5.38;2.00;;;;;;;42.09;16.76;98380.91;4974902;28;20046;-80
2022/09/11 08:51:31;;;;;;;7.50;2.30;;;;;;;41.44;18.91;98378.41;4995237;28;20037;-77
2022/09/11 08:53:56;;;;;;;5.75;2.17;;;;;;;41.56;19.08;98378.50;4977900;28;20022;-76
2022/09/11 08:56:22;;;;;;;4.43;2.20;;;;;;;41.69;19.21;98378.59;4961235;28;20132;-78
2022/09/11 08:59:11;;;;;;;6.80;2.45;;;;;;;41.91;19.05;98375.56;4979907;28;20547;-76
2022/09/11 09:01:52;;;;;;;3.08;1.90;;;;;;;42.07;18.77;98364.00;5007370;28;20104;-77
2022/09/11 09:04:49;;;;;;;4.25;2.03;;;;;;;42.18;18.48;98367.97;4978643;28;20501;-78
2022/09/11 09:07:24;;;;;;;8.05;2.03;;;;;;;42.23;18.21;98362.25;5008829;28;20034;-78
2022/09/11 09:10:20;;;;;;;3.75;1.85;;;;;;;42.17;18.14;98349.09;4994340;28;20186;-75
2022/09/11 09:12:52;;;;;;;4.93;2.28;;;;;;;42.07;18.51;98355.78;4963900;28;20052;-77
2022/09/11 09:15:24;;;;;;;4.25;1.98;;;;;;;42.25;18.36;98345.47;4995703;28;20026;-78
2022/09/11 09:17:59;;;;;;;3.80;1.90;;;;;;;41.84;19.08;98341.59;4977787;28;20030;-83
2022/09/11 09:20:34;;;;;;;4.38;2.30;;;;;;;41.46;19.37;98345.22;4976468;28;20026;-82
2022/09/11 09:23:10;;;;;;;4.10;2.10;;;;;;;41.20;19.49;98336.00;4959251;28;20030;-88
2022/09/11 09:25:37;;;;;;;3.43;2.00;;;;;;;41.45;18.56;98319.78;4963256;28;20029;-78
2022/09/11 09:28:13;;;;;;;5.65;2.17;;;;;;;41.20;20.52;98335.19;4979107;28;20045;-82
2022/09/11 09:30:59;;;;;;;6.35;2.65;;;;;;;41.31;19.03;98325.50;4991426;28;20025;-78
2022/09/11 09:33:36;;;;;;;5.22;2.03;;;;;;;40.73;19.20;98327.78;4961293;28;20112;-78
2022/09/11 09:36:19;;;;;;;7.28;2.25;;;;;;;40.07;20.75;98320.63;4961368;28;20481;-76
2022/09/11 09:38:45;;;;;;;7.60;2.50;;;;;;;39.66;20.53;98323.81;4995243;28;20040;-77
2022/09/11 09:41:19;;;;;;;5.82;2.30;;;;;;;39.32;20.90;98336.25;4977960;28;20041;-78
2022/09/11 09:44:07;;;;;;;8.70;3.03;;;;;;;39.69;20.33;98321.25;4992344;28;20524;-78
2022/09/11 09:46:43;;;;;;;7.38;2.78;;;;;;;39.82;20.24;98324.16;4961760;28;20091;-78
2022/09/11 09:49:09;;;;;;;7.57;2.93;;;;;;;40.01;20.14;98326.59;5011275;28;20108;-79
2022/09/11 09:51:38;;;;;;;10.15;2.58;;;;;;;40.04;19.86;98317.75;4960858;28;20091;-86
2022/09/11 09:54:04;;;;;;;8.55;2.65;;;;;;;39.95;20.25;98324.00;4962736;28;20029;-79
2022/09/11 09:56:30;;;;;;;7.07;2.40;;;;;;;39.40;20.47;98314.44;4993144;28;20077;-80
2022/09/11 09:59:01;;;;;;;4.20;2.20;;;;;;;39.12;20.93;98307.63;4960898;28;20133;-74
2022/09/11 10:01:49;;;;;;;7.28;2.20;;;;;;;38.71;21.37;98313.06;4976388;28;20528;-74
2022/09/11 10:04:26;;;;;;;5.28;2.22;;;;;;;38.29;20.82;98303.47;5008491;28;20088;-76
2022/09/11 10:07:09;;;;;;;5.22;2.55;;;;;;;38.02;21.91;98302.47;4960796;28;20063;-75
2022/09/11 10:09:35;;;;;;;7.50;2.38;;;;;;;37.33;22.52;98295.22;4977025;28;20088;-80
2022/09/11 10:12:02;;;;;;;5.80;2.35;;;;;;;36.90;22.44;98290.88;4960761;28;20029;-80
2022/09/11 10:14:31;;;;;;;8.27;3.72;;;;;;;36.46;22.24;98296.84;4976324;28;20026;-76
2022/09/11 10:16:57;;;;;;;20.25;4.70;;;;;;;36.10;24.47;98294.69;4976946;28;20084;-74
2022/09/11 10:19:40;;;;;;;17.35;3.65;;;;;;;35.84;26.13;98306.72;4976265;28;20037;-75
2022/09/11 10:22:30;;;;;;;10.82;2.90;;;;;;;35.56;25.77;98305.72;4975711;28;20029;-75
2022/09/11 10:24:59;;;;;;;13.35;7.78;;;;;;;35.45;26.89;98306.97;4978930;28;20021;-74
2022/09/11 10:27:26;;;;;;;10.55;4.93;;;;;;;35.30;26.97;98302.56;4992723;28;20516;-75
2022/09/11 10:29:53;;;;;;;16.80;8.38;;;;;;;35.01;26.92;98302.59;4976436;28;20073;-76
2022/09/11 10:32:18;;;;;;;35.57;8.87;;;;;;;35.03;28.00;98301.22;4992874;28;20026;-75
2022/09/11 10:34:44;;;;;;;18.20;5.43;;;;;;;35.12;26.38;98291.34;4959957;28;20088;-74
2022/09/11 10:37:12;;;;;;;20.65;4.65;;;;;;;35.02;26.06;98296.88;4976293;28;20072;-76
2022/09/11 10:39:39;;;;;;;19.00;7.45;;;;;;;35.26;27.13;98298.78;5010972;28;20026;-78
2022/09/11 10:42:22;;;;;;;15.88;4.57;;;;;;;35.33;25.69;98291.91;4976788;28;20025;-76
2022/09/11 10:44:48;;;;;;;11.68;4.45;;;;;;;35.30;25.29;98291.72;4978599;28;20033;-75
2022/09/11 10:47:16;;;;;;;8.63;5.20;;;;;;;35.12;26.44;98282.38;4989609;28;20091;-77
2022/09/11 10:49:41;;;;;;;;;;;;;;;35.17;26.07;98289.66;4980058;28;20030;-75
2022/09/11 10:52:07;;;;;;;7.90;3.72;;;;;;;35.26;24.49;98280.59;4996196;28;20384;-75
2022/09/11 10:54:54;;;;;;;7.00;2.42;;;;;;;35.26;23.59;98285.22;4995046;28;20034;-78
2022/09/11 10:57:25;;;;;;;;;;;;;;;35.30;24.89;98284.38;5010982;28;20022;-74
2022/09/11 11:00:20;;;;;;;6.72;4.15;;;;;;;35.35;25.58;98282.69;5013368;28;19932;-77
2022/09/11 11:02:49;;;;;;;6.95;4.07;;;;;;;35.49;25.56;98283.59;4993987;28;20489;-77
2022/09/11 11:05:53;;;;;;;4.65;3.38;;;;;;;35.19;23.02;98277.44;4963129;28;20433;-78
2022/09/11 11:08:45;;;;;;;6.20;3.17;;;;;;;35.05;23.73;98282.75;4933042;29;20052;-77
2022/09/11 11:11:32;;;;;;;6.93;3.90;;;;;;;35.25;25.50;98275.47;4929535;29;20032;-77
2022/09/11 11:14:14;;;;;;;8.10;2.90;;;;;;;34.86;23.62;98268.31;4933081;29;20036;-79
2022/09/11 11:16:54;;;;;;;3.95;2.58;;;;;;;34.42;24.23;98270.88;4930379;29;20036;-76
2022/09/11 11:19:28;;;;;;;7.57;3.03;;;;;;;34.21;24.65;98272.13;4930953;29;20030;-77
2022/09/11 11:22:15;;;;;;;5.35;2.90;;;;;;;34.30;25.59;98259.63;4933367;29;20609;-77
2022/09/11 11:24:53;;;;;;;6.43;3.00;;;;;;;34.15;24.65;98259.72;4902456;29;20032;-76
2022/09/11 11:27:43;;;;;;;8.60;3.10;;;;;;;34.02;25.68;98259.28;4917742;29;20035;-76
2022/09/11 11:30:16;;;;;;;5.45;3.55;;;;;;;33.91;26.57;98248.81;4915598;29;20059;-79
2022/09/11 11:33:08;;;;;;;5.57;3.72;;;;;;;33.86;27.80;98253.16;4933113;29;20050;-78
2022/09/11 11:35:34;;;;;;;7.88;3.20;;;;;;;33.78;28.75;98252.94;4932382;29;20051;-76
2022/09/11 11:38:21;;;;;;;5.18;2.70;;;;;;;33.57;29.22;98258.44;4932903;29;20031;-77
2022/09/11 11:40:52;;;;;;;;;;;;;;;33.45;29.41;98250.69;4934798;29;20036;-80
2022/09/11 11:43:20;;;;;;;9.63;3.40;;;;;;;33.28;29.44;98255.66;4990127;28;20320;-76